sensor_id;sensor_type;location;lat;lon;timestamp;P1;durP1;ratioP1;P2;durP2;ratioP2
3171;SDS011;1597;51.572;6.992;2023-06-19T00:00:38;7.10;;;6.50;;
3171;SDS011;1597;51.572;6.992;2023-06-19T00:03:04;7.50;;;6.80;;
3171;SDS011;1597;51.572;6.992;2023-06-19T00:05:32;6.83;;;6.17;;
3171;SDS011;1597;51.572;6.992;2023-06-19T00:07:57;10.03;;;6.60;;
3171;SDS011;1597;51.572;6.992;2023-06-19T00:10:23;7.20;;;6.70;;
3171;SDS011;1597;51.572;6.992;2023-06-19T00:12:49;6.70;;;6.10;;
3171;SDS011;1597;51.572;6.992;2023-06-19T00:15:16;7.20;;;6.60;;
3171;SDS011;1597;51.572;6.992;2023-06-19T00:17:42;6.97;;;6.37;;
3171;SDS011;1597;51.572;6.992;2023-06-19T00:20:08;8.07;;;7.37;;
3171;SDS011;1597;51.572;6.992;2023-06-19T00:22:34;8.47;;;7.70;;
3171;SDS011;1597;51.572;6.992;2023-06-19T00:25:00;6.97;;;6.33;;
3171;SDS011;1597;51.572;6.992;2023-06-19T00:27:26;7.33;;;6.63;;
3171;SDS011;1597;51.572;6.992;2023-06-19T00:29:52;12.40;;;7.70;;
3171;SDS011;1597;51.572;6.992;2023-06-19T00:32:19;8.73;;;8.03;;
3171;SDS011;1597;51.572;6.992;2023-06-19T00:34:45;7.90;;;6.40;;
3171;SDS011;1597;51.572;6.992;2023-06-19T00:37:11;8.03;;;6.40;;
3171;SDS011;1597;51.572;6.992;2023-06-19T00:39:38;7.20;;;6.50;;
3171;SDS011;1597;51.572;6.992;2023-06-19T00:42:05;8.83;;;7.57;;
3171;SDS011;1597;51.572;6.992;2023-06-19T00:44:31;7.40;;;6.80;;
3171;SDS011;1597;51.572;6.992;2023-06-19T00:46:58;8.77;;;7.87;;
3171;SDS011;1597;51.572;6.992;2023-06-19T00:49:27;6.90;;;6.30;;
3171;SDS011;1597;51.572;6.992;2023-06-19T00:51:55;8.47;;;7.67;;
3171;SDS011;1597;51.572;6.992;2023-06-19T00:54:22;8.90;;;8.20;;
3171;SDS011;1597;51.572;6.992;2023-06-19T00:56:48;7.90;;;7.20;;
3171;SDS011;1597;51.572;6.992;2023-06-19T00:59:16;8.97;;;8.17;;
3171;SDS011;1597;51.572;6.992;2023-06-19T01:01:45;7.87;;;7.17;;
3171;SDS011;1597;51.572;6.992;2023-06-19T01:04:12;7.60;;;6.97;;
3171;SDS011;1597;51.572;6.992;2023-06-19T01:07:26;8.13;;;7.40;;
3171;SDS011;1597;51.572;6.992;2023-06-19T01:09:59;7.80;;;7.10;;
3171;SDS011;1597;51.572;6.992;2023-06-19T01:12:34;7.57;;;6.97;;
3171;SDS011;1597;51.572;6.992;2023-06-19T01:15:09;7.13;;;6.53;;
3171;SDS011;1597;51.572;6.992;2023-06-19T01:17:36;7.67;;;7.07;;
3171;SDS011;1597;51.572;6.992;2023-06-19T01:20:02;8.60;;;6.70;;
3171;SDS011;1597;51.572;6.992;2023-06-19T01:22:35;7.33;;;6.63;;
3171;SDS011;1597;51.572;6.992;2023-06-19T01:25:01;7.07;;;6.47;;
3171;SDS011;1597;51.572;6.992;2023-06-19T01:27:31;8.40;;;7.50;;
3171;SDS011;1597;51.572;6.992;2023-06-19T01:29:58;7.20;;;6.70;;
3171;SDS011;1597;51.572;6.992;2023-06-19T01:35:30;8.80;;;7.83;;
3171;SDS011;1597;51.572;6.992;2023-06-19T01:38:01;8.20;;;6.73;;
3171;SDS011;1597;51.572;6.992;2023-06-19T01:40:28;8.77;;;7.97;;
3171;SDS011;1597;51.572;6.992;2023-06-19T01:42:58;7.57;;;6.97;;
3171;SDS011;1597;51.572;6.992;2023-06-19T01:45:29;7.13;;;6.53;;
3171;SDS011;1597;51.572;6.992;2023-06-19T01:47:56;7.40;;;6.80;;
3171;SDS011;1597;51.572;6.992;2023-06-19T01:50:23;8.00;;;7.30;;
3171;SDS011;1597;51.572;6.992;2023-06-19T01:52:50;6.90;;;6.30;;
3171;SDS011;1597;51.572;6.992;2023-06-19T01:55:18;7.73;;;7.07;;
3171;SDS011;1597;51.572;6.992;2023-06-19T01:57:44;7.70;;;6.90;;
3171;SDS011;1597;51.572;6.992;2023-06-19T02:00:13;8.33;;;7.27;;
3171;SDS011;1597;51.572;6.992;2023-06-19T02:02:40;8.27;;;7.47;;
3171;SDS011;1597;51.572;6.992;2023-06-19T02:05:06;6.83;;;6.20;;
3171;SDS011;1597;51.572;6.992;2023-06-19T02:07:32;7.50;;;6.80;;
3171;SDS011;1597;51.572;6.992;2023-06-19T02:09:58;8.17;;;7.30;;
3171;SDS011;1597;51.572;6.992;2023-06-19T02:12:24;7.70;;;7.10;;
3171;SDS011;1597;51.572;6.992;2023-06-19T02:14:50;8.23;;;7.57;;
3171;SDS011;1597;51.572;6.992;2023-06-19T02:17:15;8.17;;;7.27;;
3171;SDS011;1597;51.572;6.992;2023-06-19T02:19:41;8.10;;;7.40;;
3171;SDS011;1597;51.572;6.992;2023-06-19T02:22:07;8.30;;;7.27;;
3171;SDS011;1597;51.572;6.992;2023-06-19T02:24:33;8.63;;;7.93;;
3171;SDS011;1597;51.572;6.992;2023-06-19T02:26:59;9.30;;;8.40;;
3171;SDS011;1597;51.572;6.992;2023-06-19T02:29:27;9.20;;;8.40;;
3171;SDS011;1597;51.572;6.992;2023-06-19T02:31:54;6.83;;;6.30;;
3171;SDS011;1597;51.572;6.992;2023-06-19T02:34:20;7.80;;;7.10;;
3171;SDS011;1597;51.572;6.992;2023-06-19T02:36:49;7.70;;;6.90;;
3171;SDS011;1597;51.572;6.992;2023-06-19T02:39:15;7.40;;;6.80;;
3171;SDS011;1597;51.572;6.992;2023-06-19T02:41:41;7.83;;;7.13;;
3171;SDS011;1597;51.572;6.992;2023-06-19T02:44:12;8.63;;;7.73;;
3171;SDS011;1597;51.572;6.992;2023-06-19T02:46:38;8.33;;;7.63;;
3171;SDS011;1597;51.572;6.992;2023-06-19T02:49:04;8.10;;;6.93;;
3171;SDS011;1597;51.572;6.992;2023-06-19T02:51:30;7.80;;;7.10;;
3171;SDS011;1597;51.572;6.992;2023-06-19T02:53:56;7.63;;;6.87;;
3171;SDS011;1597;51.572;6.992;2023-06-19T02:56:22;8.47;;;7.00;;
3171;SDS011;1597;51.572;6.992;2023-06-19T02:58:49;8.30;;;7.27;;
3171;SDS011;1597;51.572;6.992;2023-06-19T03:01:14;7.03;;;6.43;;
3171;SDS011;1597;51.572;6.992;2023-06-19T03:03:40;7.80;;;7.07;;
3171;SDS011;1597;51.572;6.992;2023-06-19T03:06:06;8.07;;;7.27;;
3171;SDS011;1597;51.572;6.992;2023-06-19T03:08:33;8.10;;;7.20;;
3171;SDS011;1597;51.572;6.992;2023-06-19T03:11:00;7.40;;;6.70;;
3171;SDS011;1597;51.572;6.992;2023-06-19T03:13:29;7.97;;;7.27;;
3171;SDS011;1597;51.572;6.992;2023-06-19T03:16:17;7.60;;;6.80;;
3171;SDS011;1597;51.572;6.992;2023-06-19T03:18:43;7.60;;;6.90;;
3171;SDS011;1597;51.572;6.992;2023-06-19T03:21:13;9.10;;;6.87;;
3171;SDS011;1597;51.572;6.992;2023-06-19T03:23:39;7.77;;;6.97;;
3171;SDS011;1597;51.572;6.992;2023-06-19T03:26:08;7.10;;;6.40;;
3171;SDS011;1597;51.572;6.992;2023-06-19T03:28:35;6.83;;;6.27;;
3171;SDS011;1597;51.572;6.992;2023-06-19T03:31:01;8.27;;;7.03;;
3171;SDS011;1597;51.572;6.992;2023-06-19T03:33:27;6.03;;;5.53;;
3171;SDS011;1597;51.572;6.992;2023-06-19T03:35:55;6.40;;;5.80;;
3171;SDS011;1597;51.572;6.992;2023-06-19T03:38:21;5.57;;;5.07;;
3171;SDS011;1597;51.572;6.992;2023-06-19T03:40:46;6.07;;;5.57;;
3171;SDS011;1597;51.572;6.992;2023-06-19T03:43:12;5.50;;;5.00;;
3171;SDS011;1597;51.572;6.992;2023-06-19T03:45:38;9.00;;;4.20;;
3171;SDS011;1597;51.572;6.992;2023-06-19T03:48:06;5.47;;;4.90;;
3171;SDS011;1597;51.572;6.992;2023-06-19T03:50:32;6.23;;;5.63;;
3171;SDS011;1597;51.572;6.992;2023-06-19T03:52:58;5.40;;;4.90;;
3171;SDS011;1597;51.572;6.992;2023-06-19T03:55:24;5.20;;;4.70;;
3171;SDS011;1597;51.572;6.992;2023-06-19T03:57:50;5.87;;;5.10;;
3171;SDS011;1597;51.572;6.992;2023-06-19T04:00:16;6.30;;;4.97;;
3171;SDS011;1597;51.572;6.992;2023-06-19T04:02:43;6.27;;;5.70;;
3171;SDS011;1597;51.572;6.992;2023-06-19T04:05:11;6.20;;;4.70;;
3171;SDS011;1597;51.572;6.992;2023-06-19T04:07:38;6.37;;;4.70;;
3171;SDS011;1597;51.572;6.992;2023-06-19T04:10:03;7.17;;;5.20;;
3171;SDS011;1597;51.572;6.992;2023-06-19T04:12:30;5.10;;;4.30;;
3171;SDS011;1597;51.572;6.992;2023-06-19T04:14:56;4.80;;;4.23;;
3171;SDS011;1597;51.572;6.992;2023-06-19T04:17:22;4.70;;;4.30;;
3171;SDS011;1597;51.572;6.992;2023-06-19T04:19:47;4.80;;;4.33;;
3171;SDS011;1597;51.572;6.992;2023-06-19T04:22:13;5.47;;;3.93;;
3171;SDS011;1597;51.572;6.992;2023-06-19T04:24:39;4.40;;;3.90;;
3171;SDS011;1597;51.572;6.992;2023-06-19T04:27:05;8.03;;;4.40;;
3171;SDS011;1597;51.572;6.992;2023-06-19T04:29:33;4.17;;;3.60;;
3171;SDS011;1597;51.572;6.992;2023-06-19T04:32:00;4.47;;;4.00;;
3171;SDS011;1597;51.572;6.992;2023-06-19T04:34:36;4.47;;;3.57;;
3171;SDS011;1597;51.572;6.992;2023-06-19T04:37:07;5.13;;;4.63;;
3171;SDS011;1597;51.572;6.992;2023-06-19T04:39:33;3.87;;;3.57;;
3171;SDS011;1597;51.572;6.992;2023-06-19T04:42:00;4.13;;;3.77;;
3171;SDS011;1597;51.572;6.992;2023-06-19T04:44:25;5.33;;;4.43;;
3171;SDS011;1597;51.572;6.992;2023-06-19T04:46:51;4.63;;;4.23;;
3171;SDS011;1597;51.572;6.992;2023-06-19T04:49:25;3.83;;;3.53;;
3171;SDS011;1597;51.572;6.992;2023-06-19T04:51:56;6.57;;;4.37;;
3171;SDS011;1597;51.572;6.992;2023-06-19T04:54:22;4.47;;;4.07;;
3171;SDS011;1597;51.572;6.992;2023-06-19T04:56:49;5.40;;;4.00;;
3171;SDS011;1597;51.572;6.992;2023-06-19T04:59:15;4.10;;;3.67;;
3171;SDS011;1597;51.572;6.992;2023-06-19T05:01:43;4.87;;;4.00;;
3171;SDS011;1597;51.572;6.992;2023-06-19T05:04:09;4.87;;;4.20;;
3171;SDS011;1597;51.572;6.992;2023-06-19T05:06:37;3.80;;;3.40;;
3171;SDS011;1597;51.572;6.992;2023-06-19T05:09:03;3.97;;;2.77;;
3171;SDS011;1597;51.572;6.992;2023-06-19T05:11:30;6.20;;;2.93;;
3171;SDS011;1597;51.572;6.992;2023-06-19T05:13:55;6.40;;;2.83;;
3171;SDS011;1597;51.572;6.992;2023-06-19T05:16:22;3.17;;;2.70;;
3171;SDS011;1597;51.572;6.992;2023-06-19T05:18:49;3.10;;;2.70;;
3171;SDS011;1597;51.572;6.992;2023-06-19T05:21:16;3.60;;;3.07;;
3171;SDS011;1597;51.572;6.992;2023-06-19T05:23:42;5.10;;;2.80;;
3171;SDS011;1597;51.572;6.992;2023-06-19T05:26:08;3.57;;;2.87;;
3171;SDS011;1597;51.572;6.992;2023-06-19T05:28:34;3.50;;;3.03;;
3171;SDS011;1597;51.572;6.992;2023-06-19T05:31:03;3.57;;;3.03;;
3171;SDS011;1597;51.572;6.992;2023-06-19T05:33:29;5.67;;;3.60;;
3171;SDS011;1597;51.572;6.992;2023-06-19T05:35:55;5.63;;;4.03;;
3171;SDS011;1597;51.572;6.992;2023-06-19T05:38:21;3.80;;;2.93;;
3171;SDS011;1597;51.572;6.992;2023-06-19T05:40:48;5.17;;;3.40;;
3171;SDS011;1597;51.572;6.992;2023-06-19T05:43:15;4.40;;;4.00;;
3171;SDS011;1597;51.572;6.992;2023-06-19T05:45:41;9.83;;;5.47;;
3171;SDS011;1597;51.572;6.992;2023-06-19T05:48:07;3.20;;;3.00;;
3171;SDS011;1597;51.572;6.992;2023-06-19T05:50:32;4.70;;;4.27;;
3171;SDS011;1597;51.572;6.992;2023-06-19T05:52:58;4.80;;;3.83;;
3171;SDS011;1597;51.572;6.992;2023-06-19T05:55:24;6.87;;;4.43;;
3171;SDS011;1597;51.572;6.992;2023-06-19T05:57:50;4.33;;;3.90;;
3171;SDS011;1597;51.572;6.992;2023-06-19T06:00:16;6.53;;;3.83;;
3171;SDS011;1597;51.572;6.992;2023-06-19T06:02:42;5.57;;;4.17;;
3171;SDS011;1597;51.572;6.992;2023-06-19T06:05:08;3.90;;;3.50;;
3171;SDS011;1597;51.572;6.992;2023-06-19T06:07:34;5.73;;;4.27;;
3171;SDS011;1597;51.572;6.992;2023-06-19T06:10:00;4.27;;;3.87;;
3171;SDS011;1597;51.572;6.992;2023-06-19T06:12:26;5.50;;;3.50;;
3171;SDS011;1597;51.572;6.992;2023-06-19T06:14:52;4.83;;;4.33;;
3171;SDS011;1597;51.572;6.992;2023-06-19T06:17:18;4.00;;;3.60;;
3171;SDS011;1597;51.572;6.992;2023-06-19T06:19:44;6.67;;;4.50;;
3171;SDS011;1597;51.572;6.992;2023-06-19T06:22:10;5.20;;;3.20;;
3171;SDS011;1597;51.572;6.992;2023-06-19T06:24:35;4.13;;;3.73;;
3171;SDS011;1597;51.572;6.992;2023-06-19T06:27:01;6.63;;;3.43;;
3171;SDS011;1597;51.572;6.992;2023-06-19T06:29:28;4.30;;;3.50;;
3171;SDS011;1597;51.572;6.992;2023-06-19T06:32:02;3.57;;;3.30;;
3171;SDS011;1597;51.572;6.992;2023-06-19T06:34:35;3.87;;;3.03;;
3171;SDS011;1597;51.572;6.992;2023-06-19T06:37:01;3.47;;;3.17;;
3171;SDS011;1597;51.572;6.992;2023-06-19T06:39:27;5.90;;;4.60;;
3171;SDS011;1597;51.572;6.992;2023-06-19T06:41:53;4.03;;;3.73;;
3171;SDS011;1597;51.572;6.992;2023-06-19T06:44:19;4.50;;;3.67;;
3171;SDS011;1597;51.572;6.992;2023-06-19T06:46:45;5.60;;;3.70;;
3171;SDS011;1597;51.572;6.992;2023-06-19T06:49:11;4.50;;;3.40;;
3171;SDS011;1597;51.572;6.992;2023-06-19T06:51:37;4.40;;;4.00;;
3171;SDS011;1597;51.572;6.992;2023-06-19T06:54:03;8.27;;;5.10;;
3171;SDS011;1597;51.572;6.992;2023-06-19T06:56:29;4.03;;;3.60;;
3171;SDS011;1597;51.572;6.992;2023-06-19T06:58:55;7.33;;;3.70;;
3171;SDS011;1597;51.572;6.992;2023-06-19T07:01:21;4.07;;;3.67;;
3171;SDS011;1597;51.572;6.992;2023-06-19T07:03:46;5.03;;;3.93;;
3171;SDS011;1597;51.572;6.992;2023-06-19T07:06:12;5.33;;;3.73;;
3171;SDS011;1597;51.572;6.992;2023-06-19T07:08:38;9.27;;;5.10;;
3171;SDS011;1597;51.572;6.992;2023-06-19T07:11:06;3.47;;;3.17;;
3171;SDS011;1597;51.572;6.992;2023-06-19T07:13:32;6.10;;;3.10;;
3171;SDS011;1597;51.572;6.992;2023-06-19T07:15:58;3.87;;;3.50;;
3171;SDS011;1597;51.572;6.992;2023-06-19T07:18:26;5.03;;;4.53;;
3171;SDS011;1597;51.572;6.992;2023-06-19T07:20:52;6.77;;;4.00;;
3171;SDS011;1597;51.572;6.992;2023-06-19T07:23:18;4.57;;;4.17;;
3171;SDS011;1597;51.572;6.992;2023-06-19T07:25:45;3.80;;;3.50;;
3171;SDS011;1597;51.572;6.992;2023-06-19T07:28:12;6.00;;;3.93;;
3171;SDS011;1597;51.572;6.992;2023-06-19T07:30:38;5.27;;;4.03;;
3171;SDS011;1597;51.572;6.992;2023-06-19T07:33:05;4.07;;;3.67;;
3171;SDS011;1597;51.572;6.992;2023-06-19T07:35:30;8.23;;;4.47;;
3171;SDS011;1597;51.572;6.992;2023-06-19T07:37:56;4.13;;;3.60;;
3171;SDS011;1597;51.572;6.992;2023-06-19T07:40:22;5.23;;;4.10;;
3171;SDS011;1597;51.572;6.992;2023-06-19T07:42:48;5.07;;;4.57;;
3171;SDS011;1597;51.572;6.992;2023-06-19T07:45:13;4.83;;;4.00;;
3171;SDS011;1597;51.572;6.992;2023-06-19T07:47:39;4.27;;;3.87;;
3171;SDS011;1597;51.572;6.992;2023-06-19T07:50:05;5.50;;;4.43;;
3171;SDS011;1597;51.572;6.992;2023-06-19T07:52:32;4.60;;;4.20;;
3171;SDS011;1597;51.572;6.992;2023-06-19T07:54:58;4.80;;;4.40;;
3171;SDS011;1597;51.572;6.992;2023-06-19T07:57:25;5.13;;;4.70;;
3171;SDS011;1597;51.572;6.992;2023-06-19T07:59:53;5.03;;;4.50;;
3171;SDS011;1597;51.572;6.992;2023-06-19T08:02:20;4.50;;;4.10;;
3171;SDS011;1597;51.572;6.992;2023-06-19T08:04:46;3.83;;;3.53;;
3171;SDS011;1597;51.572;6.992;2023-06-19T08:07:12;4.50;;;3.93;;
3171;SDS011;1597;51.572;6.992;2023-06-19T08:09:38;5.90;;;5.23;;
3171;SDS011;1597;51.572;6.992;2023-06-19T08:12:04;6.10;;;4.73;;
3171;SDS011;1597;51.572;6.992;2023-06-19T08:14:30;6.10;;;5.57;;
3171;SDS011;1597;51.572;6.992;2023-06-19T08:16:56;5.10;;;4.43;;
3171;SDS011;1597;51.572;6.992;2023-06-19T08:19:22;7.83;;;7.03;;
3171;SDS011;1597;51.572;6.992;2023-06-19T08:21:48;5.90;;;4.70;;
3171;SDS011;1597;51.572;6.992;2023-06-19T08:24:13;5.70;;;4.70;;
3171;SDS011;1597;51.572;6.992;2023-06-19T08:26:39;4.23;;;3.87;;
3171;SDS011;1597;51.572;6.992;2023-06-19T08:29:05;4.37;;;3.97;;
3171;SDS011;1597;51.572;6.992;2023-06-19T08:31:31;4.50;;;4.10;;
3171;SDS011;1597;51.572;6.992;2023-06-19T08:33:57;6.73;;;4.10;;
3171;SDS011;1597;51.572;6.992;2023-06-19T08:36:23;3.70;;;3.40;;
3171;SDS011;1597;51.572;6.992;2023-06-19T08:38:49;3.87;;;3.57;;
3171;SDS011;1597;51.572;6.992;2023-06-19T08:41:16;4.47;;;4.07;;
3171;SDS011;1597;51.572;6.992;2023-06-19T08:43:45;4.67;;;4.27;;
3171;SDS011;1597;51.572;6.992;2023-06-19T08:46:13;4.63;;;4.23;;
3171;SDS011;1597;51.572;6.992;2023-06-19T08:48:41;6.13;;;3.90;;
3171;SDS011;1597;51.572;6.992;2023-06-19T08:51:07;5.10;;;4.63;;
3171;SDS011;1597;51.572;6.992;2023-06-19T08:53:43;5.70;;;5.07;;
3171;SDS011;1597;51.572;6.992;2023-06-19T08:56:17;5.23;;;4.60;;
3171;SDS011;1597;51.572;6.992;2023-06-19T08:58:43;7.37;;;5.20;;
3171;SDS011;1597;51.572;6.992;2023-06-19T09:01:09;5.60;;;4.63;;
3171;SDS011;1597;51.572;6.992;2023-06-19T09:03:35;4.13;;;3.73;;
3171;SDS011;1597;51.572;6.992;2023-06-19T09:06:06;5.03;;;4.33;;
3171;SDS011;1597;51.572;6.992;2023-06-19T09:08:32;4.70;;;3.70;;
3171;SDS011;1597;51.572;6.992;2023-06-19T09:10:59;5.73;;;3.63;;
3171;SDS011;1597;51.572;6.992;2023-06-19T09:13:28;4.60;;;3.80;;
3171;SDS011;1597;51.572;6.992;2023-06-19T09:18:31;4.70;;;3.30;;
3171;SDS011;1597;51.572;6.992;2023-06-19T09:21:17;5.63;;;3.73;;
3171;SDS011;1597;51.572;6.992;2023-06-19T09:23:47;4.40;;;3.33;;
3171;SDS011;1597;51.572;6.992;2023-06-19T09:26:15;3.93;;;3.50;;
3171;SDS011;1597;51.572;6.992;2023-06-19T09:28:43;4.87;;;4.43;;
3171;SDS011;1597;51.572;6.992;2023-06-19T09:31:09;3.50;;;3.20;;
3171;SDS011;1597;51.572;6.992;2023-06-19T09:33:35;3.77;;;3.47;;
3171;SDS011;1597;51.572;6.992;2023-06-19T09:36:03;3.73;;;3.43;;
3171;SDS011;1597;51.572;6.992;2023-06-19T09:38:31;4.37;;;3.90;;
3171;SDS011;1597;51.572;6.992;2023-06-19T09:41:04;5.67;;;4.87;;
3171;SDS011;1597;51.572;6.992;2023-06-19T09:43:43;5.07;;;4.57;;
3171;SDS011;1597;51.572;6.992;2023-06-19T09:46:12;5.83;;;4.70;;
3171;SDS011;1597;51.572;6.992;2023-06-19T09:48:44;9.43;;;4.40;;
3171;SDS011;1597;51.572;6.992;2023-06-19T09:54:12;6.33;;;4.43;;
3171;SDS011;1597;51.572;6.992;2023-06-19T09:56:41;5.73;;;5.13;;
3171;SDS011;1597;51.572;6.992;2023-06-19T09:59:07;5.57;;;4.90;;
3171;SDS011;1597;51.572;6.992;2023-06-19T10:01:35;5.70;;;4.80;;
3171;SDS011;1597;51.572;6.992;2023-06-19T10:04:08;5.90;;;5.27;;
3171;SDS011;1597;51.572;6.992;2023-06-19T10:06:44;6.27;;;5.20;;
3171;SDS011;1597;51.572;6.992;2023-06-19T10:09:14;8.20;;;6.77;;
3171;SDS011;1597;51.572;6.992;2023-06-19T10:11:50;11.83;;;10.60;;
3171;SDS011;1597;51.572;6.992;2023-06-19T10:14:21;8.70;;;5.97;;
3171;SDS011;1597;51.572;6.992;2023-06-19T10:16:49;6.13;;;4.77;;
3171;SDS011;1597;51.572;6.992;2023-06-19T10:19:32;9.43;;;6.07;;
3171;SDS011;1597;51.572;6.992;2023-06-19T10:21:58;8.80;;;6.03;;
3171;SDS011;1597;51.572;6.992;2023-06-19T10:24:25;7.80;;;6.63;;
3171;SDS011;1597;51.572;6.992;2023-06-19T10:26:56;7.23;;;5.57;;
3171;SDS011;1597;51.572;6.992;2023-06-19T10:29:25;6.40;;;5.30;;
3171;SDS011;1597;51.572;6.992;2023-06-19T10:31:53;5.73;;;5.00;;
3171;SDS011;1597;51.572;6.992;2023-06-19T10:34:19;5.60;;;5.10;;
3171;SDS011;1597;51.572;6.992;2023-06-19T10:36:45;6.37;;;5.77;;
3171;SDS011;1597;51.572;6.992;2023-06-19T10:39:12;6.57;;;5.97;;
3171;SDS011;1597;51.572;6.992;2023-06-19T10:41:39;6.30;;;5.80;;
3171;SDS011;1597;51.572;6.992;2023-06-19T10:44:06;7.23;;;6.53;;
3171;SDS011;1597;51.572;6.992;2023-06-19T10:46:40;9.23;;;7.33;;
3171;SDS011;1597;51.572;6.992;2023-06-19T10:49:10;9.37;;;6.43;;
3171;SDS011;1597;51.572;6.992;2023-06-19T10:51:38;8.90;;;6.60;;
3171;SDS011;1597;51.572;6.992;2023-06-19T10:54:07;6.60;;;6.00;;
3171;SDS011;1597;51.572;6.992;2023-06-19T10:56:34;6.80;;;5.40;;
3171;SDS011;1597;51.572;6.992;2023-06-19T10:59:02;7.87;;;5.60;;
3171;SDS011;1597;51.572;6.992;2023-06-19T11:01:32;7.60;;;6.50;;
3171;SDS011;1597;51.572;6.992;2023-06-19T11:04:08;7.53;;;6.83;;
3171;SDS011;1597;51.572;6.992;2023-06-19T11:06:36;8.20;;;6.93;;
3171;SDS011;1597;51.572;6.992;2023-06-19T11:09:07;7.10;;;6.40;;
3171;SDS011;1597;51.572;6.992;2023-06-19T11:11:42;7.80;;;7.07;;
3171;SDS011;1597;51.572;6.992;2023-06-19T11:14:11;9.07;;;8.20;;
3171;SDS011;1597;51.572;6.992;2023-06-19T11:16:40;8.13;;;7.30;;
3171;SDS011;1597;51.572;6.992;2023-06-19T11:19:16;7.47;;;6.70;;
3171;SDS011;1597;51.572;6.992;2023-06-19T11:21:50;9.03;;;6.90;;
3171;SDS011;1597;51.572;6.992;2023-06-19T11:24:17;8.90;;;7.23;;
3171;SDS011;1597;51.572;6.992;2023-06-19T11:26:46;18.33;;;15.47;;
3171;SDS011;1597;51.572;6.992;2023-06-19T11:29:20;9.47;;;8.53;;
3171;SDS011;1597;51.572;6.992;2023-06-19T11:32:04;10.13;;;8.17;;
3171;SDS011;1597;51.572;6.992;2023-06-19T11:34:32;7.67;;;6.97;;
3171;SDS011;1597;51.572;6.992;2023-06-19T11:37:01;8.33;;;7.50;;
3171;SDS011;1597;51.572;6.992;2023-06-19T11:39:41;8.87;;;7.50;;
3171;SDS011;1597;51.572;6.992;2023-06-19T11:42:10;9.27;;;7.13;;
3171;SDS011;1597;51.572;6.992;2023-06-19T11:45:22;10.40;;;7.20;;
3171;SDS011;1597;51.572;6.992;2023-06-19T11:47:32;8.37;;;7.47;;
3171;SDS011;1597;51.572;6.992;2023-06-19T11:49:58;11.30;;;7.60;;
3171;SDS011;1597;51.572;6.992;2023-06-19T11:52:25;8.43;;;7.30;;
3171;SDS011;1597;51.572;6.992;2023-06-19T11:54:51;8.93;;;7.77;;
3171;SDS011;1597;51.572;6.992;2023-06-19T11:57:17;8.07;;;7.23;;
3171;SDS011;1597;51.572;6.992;2023-06-19T11:59:43;8.57;;;7.53;;
3171;SDS011;1597;51.572;6.992;2023-06-19T12:02:09;8.97;;;8.07;;
3171;SDS011;1597;51.572;6.992;2023-06-19T12:04:36;8.93;;;7.67;;
3171;SDS011;1597;51.572;6.992;2023-06-19T12:07:02;8.20;;;6.77;;
3171;SDS011;1597;51.572;6.992;2023-06-19T12:09:29;9.87;;;7.80;;
3171;SDS011;1597;51.572;6.992;2023-06-19T12:11:57;8.63;;;7.70;;
3171;SDS011;1597;51.572;6.992;2023-06-19T12:14:23;10.57;;;8.57;;
3171;SDS011;1597;51.572;6.992;2023-06-19T12:16:49;8.83;;;7.63;;
3171;SDS011;1597;51.572;6.992;2023-06-19T12:19:17;7.20;;;6.60;;
3171;SDS011;1597;51.572;6.992;2023-06-19T12:21:43;10.23;;;7.50;;
3171;SDS011;1597;51.572;6.992;2023-06-19T12:24:09;8.13;;;7.43;;
3171;SDS011;1597;51.572;6.992;2023-06-19T12:26:35;9.63;;;8.83;;
3171;SDS011;1597;51.572;6.992;2023-06-19T12:29:02;8.73;;;7.83;;
3171;SDS011;1597;51.572;6.992;2023-06-19T12:31:30;11.53;;;10.43;;
3171;SDS011;1597;51.572;6.992;2023-06-19T12:33:56;8.87;;;7.27;;
3171;SDS011;1597;51.572;6.992;2023-06-19T12:36:24;8.50;;;7.67;;
3171;SDS011;1597;51.572;6.992;2023-06-19T12:38:52;9.97;;;7.77;;
3171;SDS011;1597;51.572;6.992;2023-06-19T12:41:20;8.33;;;7.30;;
3171;SDS011;1597;51.572;6.992;2023-06-19T12:43:47;10.80;;;9.70;;
3171;SDS011;1597;51.572;6.992;2023-06-19T12:46:13;9.10;;;8.23;;
3171;SDS011;1597;51.572;6.992;2023-06-19T12:48:40;8.93;;;8.10;;
3171;SDS011;1597;51.572;6.992;2023-06-19T12:51:08;9.17;;;8.10;;
3171;SDS011;1597;51.572;6.992;2023-06-19T12:53:35;10.40;;;7.93;;
3171;SDS011;1597;51.572;6.992;2023-06-19T12:56:01;9.33;;;8.43;;
3171;SDS011;1597;51.572;6.992;2023-06-19T12:58:28;10.03;;;8.23;;
3171;SDS011;1597;51.572;6.992;2023-06-19T13:00:54;10.20;;;8.60;;
3171;SDS011;1597;51.572;6.992;2023-06-19T13:03:20;8.17;;;7.40;;
3171;SDS011;1597;51.572;6.992;2023-06-19T13:05:46;8.40;;;7.60;;
3171;SDS011;1597;51.572;6.992;2023-06-19T13:08:12;7.97;;;6.70;;
3171;SDS011;1597;51.572;6.992;2023-06-19T13:10:37;7.50;;;6.80;;
3171;SDS011;1597;51.572;6.992;2023-06-19T13:13:06;7.07;;;6.40;;
3171;SDS011;1597;51.572;6.992;2023-06-19T13:15:32;7.47;;;6.70;;
3171;SDS011;1597;51.572;6.992;2023-06-19T13:18:01;8.20;;;6.40;;
3171;SDS011;1597;51.572;6.992;2023-06-19T13:20:29;7.33;;;6.63;;
3171;SDS011;1597;51.572;6.992;2023-06-19T13:22:56;7.83;;;7.03;;
3171;SDS011;1597;51.572;6.992;2023-06-19T13:25:23;7.97;;;7.20;;
3171;SDS011;1597;51.572;6.992;2023-06-19T13:27:48;7.50;;;6.80;;
3171;SDS011;1597;51.572;6.992;2023-06-19T13:30:14;7.60;;;6.73;;
3171;SDS011;1597;51.572;6.992;2023-06-19T13:32:42;7.90;;;6.63;;
3171;SDS011;1597;51.572;6.992;2023-06-19T13:35:15;8.97;;;7.93;;
3171;SDS011;1597;51.572;6.992;2023-06-19T13:37:40;7.13;;;6.43;;
3171;SDS011;1597;51.572;6.992;2023-06-19T13:40:07;9.13;;;6.90;;
3171;SDS011;1597;51.572;6.992;2023-06-19T13:42:33;12.90;;;11.60;;
3171;SDS011;1597;51.572;6.992;2023-06-19T13:45:01;8.80;;;7.90;;
3171;SDS011;1597;51.572;6.992;2023-06-19T13:47:28;9.03;;;7.57;;
3171;SDS011;1597;51.572;6.992;2023-06-19T13:49:56;7.80;;;6.67;;
3171;SDS011;1597;51.572;6.992;2023-06-19T13:52:22;7.43;;;6.63;;
3171;SDS011;1597;51.572;6.992;2023-06-19T13:54:50;7.40;;;6.53;;
3171;SDS011;1597;51.572;6.992;2023-06-19T13:57:15;9.97;;;6.67;;
3171;SDS011;1597;51.572;6.992;2023-06-19T13:59:41;8.67;;;7.73;;
3171;SDS011;1597;51.572;6.992;2023-06-19T14:02:08;6.73;;;5.70;;
3171;SDS011;1597;51.572;6.992;2023-06-19T14:04:35;8.37;;;6.97;;
3171;SDS011;1597;51.572;6.992;2023-06-19T14:07:01;10.57;;;7.90;;
3171;SDS011;1597;51.572;6.992;2023-06-19T14:09:27;6.77;;;6.07;;
3171;SDS011;1597;51.572;6.992;2023-06-19T14:11:53;10.93;;;7.23;;
3171;SDS011;1597;51.572;6.992;2023-06-19T14:14:19;8.10;;;6.30;;
3171;SDS011;1597;51.572;6.992;2023-06-19T14:16:45;7.07;;;6.47;;
3171;SDS011;1597;51.572;6.992;2023-06-19T14:19:11;7.63;;;6.87;;
3171;SDS011;1597;51.572;6.992;2023-06-19T14:21:37;6.77;;;6.10;;
3171;SDS011;1597;51.572;6.992;2023-06-19T14:24:03;6.23;;;5.63;;
3171;SDS011;1597;51.572;6.992;2023-06-19T14:26:29;6.60;;;5.83;;
3171;SDS011;1597;51.572;6.992;2023-06-19T14:28:55;6.87;;;5.93;;
3171;SDS011;1597;51.572;6.992;2023-06-19T14:31:23;8.27;;;6.37;;
3171;SDS011;1597;51.572;6.992;2023-06-19T14:33:49;7.10;;;6.40;;
3171;SDS011;1597;51.572;6.992;2023-06-19T14:36:16;10.00;;;7.60;;
3171;SDS011;1597;51.572;6.992;2023-06-19T14:38:42;7.10;;;6.30;;
3171;SDS011;1597;51.572;6.992;2023-06-19T14:41:08;5.90;;;5.40;;
3171;SDS011;1597;51.572;6.992;2023-06-19T14:43:34;6.10;;;5.60;;
3171;SDS011;1597;51.572;6.992;2023-06-19T14:46:00;7.27;;;5.90;;
3171;SDS011;1597;51.572;6.992;2023-06-19T14:48:29;6.90;;;5.20;;
3171;SDS011;1597;51.572;6.992;2023-06-19T14:50:56;8.27;;;7.03;;
3171;SDS011;1597;51.572;6.992;2023-06-19T14:53:22;6.60;;;5.73;;
3171;SDS011;1597;51.572;6.992;2023-06-19T14:55:48;6.43;;;5.83;;
3171;SDS011;1597;51.572;6.992;2023-06-19T14:58:15;10.20;;;5.93;;
3171;SDS011;1597;51.572;6.992;2023-06-19T15:00:41;7.90;;;7.10;;
3171;SDS011;1597;51.572;6.992;2023-06-19T15:03:10;8.00;;;6.07;;
3171;SDS011;1597;51.572;6.992;2023-06-19T15:05:37;6.97;;;6.30;;
3171;SDS011;1597;51.572;6.992;2023-06-19T15:08:03;8.57;;;6.47;;
3171;SDS011;1597;51.572;6.992;2023-06-19T15:10:30;7.80;;;6.70;;
3171;SDS011;1597;51.572;6.992;2023-06-19T15:12:56;11.20;;;9.43;;
3171;SDS011;1597;51.572;6.992;2023-06-19T15:15:22;13.83;;;6.67;;
3171;SDS011;1597;51.572;6.992;2023-06-19T15:17:49;6.13;;;5.37;;
3171;SDS011;1597;51.572;6.992;2023-06-19T15:20:15;8.13;;;7.33;;
3171;SDS011;1597;51.572;6.992;2023-06-19T15:22:43;7.97;;;5.50;;
3171;SDS011;1597;51.572;6.992;2023-06-19T15:25:09;6.63;;;6.03;;